Getzville 2E NY

43° 01' 25"N, 78° 44' 55"W, Elevation 589 ft.
Eastern Time

Hourly observations for the last 72 hours

Date Time Temperature (°F) Humi-
dity

(%)
Wind
(mph)
Pressure Rain (in) Sun
(W/m2)
ET
(in)
Air Dew 6 Hour 1 Hr 3 Hr 6 Hr Day
Alt
(in)
Sea
Level

(mb)
Max Min
5 16:00 30.4 27.0 87 W 2 G 9 29.99 1015.6 0.00 0 0.009
5 15:00 30.1 27.3 89 W 6 G 12 29.97 1014.9 0.00 9 0.009
5 14:00 29.5 27.5 92 W 6 G 13 29.94 1013.8 0.00 23 0.008
5 13:00 30.4 28.1 31.6 29.8 91 W 1 G 8 29.92 1013.1 0.00 12 0.007
5 12:00 31.2 28.1 88 W 5 G 15 29.90 1012.5 0.00 67 0.006
5 11:00 30.3 28.0 91 WNW 2 G 8 29.90 1012.6 0.00 58 0.005
5 10:00 29.9 27.3 90 W 3 G 10 29.87 1011.5 0.00 42 0.004
5 09:00 31.5 26.9 83 W 4 G 15 29.83 1010.4 0.00 12 0.003
5 08:00 31.3 26.7 83 W 4 G 14 29.79 1008.9 0.00 14 0.003
5 07:00 30.8 27.9 32.7 30.6 89 W 3 G 11 29.78 1008.5 0.00 0 0.003
5 06:00 31.2 27.5 86 W 5 G 14 29.76 1007.7 0.00 0 0.002
5 05:00 31.8 26.6 81 W 4 G 13 29.73 1006.6 0.00 0 0.001
5 04:00 32.2 26.4 79 W 7 G 13 29.70 1005.8 0.00 0 0.000
5 03:00 31.2 28.1 88 W 6 G 10 29.67 1004.9 0.00 0 0.000
5 02:00 32.5 29.1 87 W 8 G 14 29.63 1003.6 0.00 0 0.000
5 01:00 32.7 29.3 33.2 32.5 87 W 5 G 14 29.60 1002.4 0.00 0 0.000
5 00:00 32.8 30.2 90 WNW 5 G 14 29.58 1001.7 0.01 0 0.003
4 23:00 32.6 30.5 92 W 2 G 8 29.55 1000.8 0.01 0 0.003
4 22:00 32.6 30.8 93 WSW 3 G 6 29.54 1000.3 0.01 0 0.003
4 21:00 32.5 30.7 93 W 2 G 9 29.53 1000.1 0.01 0 0.003
4 20:00 32.9 30.8 92 W 2 G 8 29.52 999.8 0.01 0 0.003
4 19:00 33.1 30.8 34.8 33.1 91 SW 2 G 8 29.50 999.2 0.01 0.01 0 0.003
4 18:00 33.3 31.2 92 WSW 0 G 8 29.49 998.7 0.01 0 0.003
4 17:00 33.4 31.1 91 W 1 G 6 29.47 997.9 0.01 0 0.003
4 16:00 34.4 31.5 89 WSW 2 G 10 29.44 997.0 0.01 0.01 0.01 26 0.002
4 15:00 34.7 31.5 88 W 4 G 10 29.42 996.5 0.00 67 0.001
4 14:00 34.4 32.0 91 WSW 3 G 9 29.41 996.0 0.00 58 0.000
4 13:00 34.4 32.6 34.9 32.1 93 SSW 1 G 7 29.41 995.8 0.00 39 0.000
4 12:00 33.5 31.7 93 SW 0 G 3 29.42 996.4 0.00 44 0.000
4 11:00 34.4 32.6 93 S 0 G 4 29.43 996.8 0.00 69 0.000
4 10:00 33.0 31.2 93 SW 0 G 1 29.44 997.1 0.00 28 0.000
4 09:00 32.5 30.7 93 Calm 29.44 997.1 0.00 0 0.000
4 08:00 32.6 30.8 93 W 1 G 6 29.45 997.3 0.00 7 0.000
4 07:00 32.1 30.3 32.1 31.7 93 WSW 1 G 8 29.46 997.7 0.00 0 0.000
4 06:00 31.9 30.1 93 Calm 29.46 997.5 0.00 0 0.000
4 05:00 32.1 30.3 93 Calm 29.46 997.8 0.00 0 0.000
4 04:00 31.7 29.6 92 Calm 29.49 998.5 0.00 0 0.000
4 03:00 31.9 29.8 92 SSW 0 G 2 29.51 999.2 0.00 0 0.000
4 02:00 31.9 29.8 92 SSW 0 G 2 29.52 999.7 0.00 0 0.000
4 01:00 31.9 29.8 33.5 31.1 92 SW 1 G 2 29.53 1000.0 0.00 0 0.000
4 00:00 32.5 30.7 93 WNW 2 G 9 29.55 1000.8 0.00 0 0.005
3 23:00 33.4 31.6 93 SSW 2 G 6 29.56 1001.0 0.00 0 0.005
3 22:00 32.5 30.7 93 SSW 1 G 6 29.58 1001.7 0.00 0 0.005
3 21:00 31.2 29.1 92 WSW 1 G 2 29.61 1002.6 0.00 0 0.005
3 20:00 31.2 28.9 91 W 1 G 4 29.63 1003.3 0.00 0 0.005
3 19:00 31.6 29.0 34.4 31.6 90 W 2 G 9 29.64 1003.7 0.00 0 0.005
3 18:00 31.7 29.1 90 W 4 G 10 29.65 1004.0 0.00 0 0.005
3 17:00 31.8 29.2 90 W 2 G 11 29.67 1004.7 0.00 0 0.005
3 16:00 32.2 29.0 88 W 2 G 7 29.69 1005.5 0.00 5 0.005
3 15:00 32.4 29.0 87 W 4 G 7 29.70 1005.9 0.00 25 0.004
3 14:00 34.0 30.3 86 W 3 G 9 29.72 1006.4 0.00 74 0.003
3 13:00 32.3 28.9 32.3 15.7 87 Calm 29.74 1007.2 0.00 84 0.002
3 12:00 30.9 27.2 86 Calm 29.78 1008.4 0.00 51 0.001
3 11:00 28.6 25.2 87 Calm 29.81 1009.6 0.00 84 0.000
3 10:00 23.8 22.1 93 Calm 29.83 1010.1 0.00 18 0.000
3 09:00 18.5 16.6 92 Calm 29.83 1010.0 0.00 19 0.000
3 08:00 16.3 14.1 91 Calm 29.83 1010.2 0.00 7 0.000
3 07:00 15.7 13.5 23.7 15.4 91 Calm 29.85 1010.8 0.00 0 0.000
3 06:00 15.6 13.4 91 Calm 29.83 1010.3 0.00 0 0.000
3 05:00 16.7 14.5 91 Calm 29.85 1010.9 0.00 0 0.000
3 04:00 17.5 15.3 91 Calm 29.85 1011.0 0.00 0 0.000
3 03:00 18.8 16.6 91 Calm 29.86 1011.3 0.00 0 0.000
3 02:00 21.2 19.0 91 Calm 29.88 1011.8 0.00 0 0.000
3 01:00 23.7 21.5 28.0 23.7 91 Calm 29.88 1011.9 0.00 0 0.000
3 00:00 26.7 24.7 92 Calm 29.89 1012.1 0.01 0 0.000
2 23:00 27.4 25.4 92 Calm 29.90 1012.4 0.01 0 0.000
2 22:00 27.6 25.6 92 Calm 29.90 1012.5 0.01 0 0.000
2 21:00 27.7 25.4 91 Calm 29.90 1012.5 0.01 0 0.000
2 20:00 27.7 25.4 91 Calm 29.88 1012.0 0.01 0 0.000
2 19:00 28.0 25.7 30.7 28.0 91 Calm 29.87 1011.5 0.01 0 0.000
2 18:00 28.8 26.8 92 Calm 29.85 1011.0 0.01 0 0.000
2 17:00 28.9 26.9 92 Calm 29.84 1010.6 0.01 0 0.000

Data generated by WxSolution Version 1.9.1.5, Build 2018.05.20.